createdAt,value
2022-10-19T00:01:02.017Z,2.88
2022-10-19T00:03:29.254Z,3.20
2022-10-19T00:05:56.142Z,3.87
2022-10-19T00:40:29.538Z,1.50
2022-10-19T00:42:57.107Z,1.43
2022-10-19T00:45:24.331Z,1.30
2022-10-19T00:47:51.647Z,1.70
2022-10-19T00:50:18.835Z,1.98
2022-10-19T00:52:46.062Z,2.05
2022-10-19T00:55:13.545Z,2.70
2022-10-19T00:57:40.901Z,2.60
2022-10-19T01:00:08.633Z,2.40
2022-10-19T01:02:36.679Z,3.20
2022-10-19T01:05:04.730Z,2.88
2022-10-19T01:07:33.195Z,2.60
2022-10-19T01:10:01.288Z,2.40
2022-10-19T01:13:04.446Z,2.80
2022-10-19T01:18:43.566Z,3.20
2022-10-19T01:21:13.215Z,2.72
2022-10-19T01:24:06.173Z,2.75
2022-10-19T01:27:10.502Z,3.10
2022-10-19T01:29:58.964Z,3.28
2022-10-19T01:32:52.396Z,2.97
2022-10-19T01:35:32.892Z,3.08
2022-10-19T01:38:11.989Z,3.27
2022-10-19T01:40:51.769Z,3.08
2022-10-19T01:43:33.509Z,3.25
2022-10-19T01:46:19.901Z,2.88
2022-10-19T01:49:02.957Z,3.25
2022-10-19T01:51:34.213Z,3.58
2022-10-19T01:54:05.992Z,2.58
2022-10-19T01:56:35.550Z,1.80
2022-10-19T01:59:05.215Z,1.50
2022-10-19T02:01:36.769Z,1.80
2022-10-19T02:04:04.813Z,1.65
2022-10-19T02:06:32.208Z,1.33
2022-10-19T02:08:59.144Z,1.00
2022-10-19T02:11:26.272Z,1.02
2022-10-19T02:14:05.411Z,1.27
2022-10-19T02:16:43.415Z,1.40
2022-10-19T02:19:13.345Z,1.55
2022-10-19T02:21:40.930Z,1.70
2022-10-19T02:24:07.740Z,1.50
2022-10-19T02:26:34.880Z,1.63
2022-10-19T02:29:01.827Z,1.10
2022-10-19T02:31:29.174Z,1.10
2022-10-19T02:33:56.163Z,1.02
2022-10-19T02:36:23.253Z,1.20
2022-10-19T02:38:50.130Z,1.10
2022-10-19T02:41:26.317Z,0.90
2022-10-19T02:44:00.275Z,0.90
2022-10-19T02:49:12.371Z,1.20
2022-10-19T02:51:55.678Z,1.70
2022-10-19T02:54:23.571Z,1.70
2022-10-19T02:56:50.598Z,1.70
2022-10-19T02:59:18.407Z,1.80
2022-10-19T03:01:45.324Z,1.60
2022-10-19T03:04:12.345Z,1.60
2022-10-19T03:06:39.205Z,1.83
2022-10-19T03:09:06.073Z,2.10
2022-10-19T03:11:33.137Z,2.00
2022-10-19T03:14:00.035Z,2.00
2022-10-19T03:16:26.896Z,2.30
2022-10-19T03:18:54.296Z,2.30
2022-10-19T03:21:21.572Z,2.22
2022-10-19T03:23:48.512Z,2.50
2022-10-19T03:26:17.271Z,2.40
2022-10-19T03:28:44.250Z,2.60
2022-10-19T03:31:11.502Z,1.90
2022-10-19T03:33:38.620Z,2.10
2022-10-19T03:36:25.077Z,2.30
2022-10-19T03:38:57.785Z,2.10
2022-10-19T03:41:27.161Z,1.95
2022-10-19T03:43:54.272Z,2.35
2022-10-19T03:46:21.717Z,2.28
2022-10-19T03:48:48.681Z,2.30
2022-10-19T03:51:24.769Z,2.80
2022-10-19T03:53:57.607Z,1.92
2022-10-19T03:56:26.520Z,2.30
2022-10-19T03:58:55.238Z,2.43
2022-10-19T04:01:25.051Z,2.60
2022-10-19T04:03:56.732Z,2.38
2022-10-19T04:06:29.316Z,2.20
2022-10-19T04:08:56.476Z,2.27
2022-10-19T04:11:25.364Z,2.40
2022-10-19T04:13:53.669Z,2.42
2022-10-19T04:16:21.903Z,2.22
2022-10-19T04:18:49.335Z,2.20
2022-10-19T04:21:22.932Z,2.30
2022-10-19T04:23:54.296Z,2.05
2022-10-19T04:26:21.270Z,2.15
2022-10-19T04:28:48.527Z,2.25
2022-10-19T04:31:15.658Z,2.13
2022-10-19T04:33:42.549Z,2.28
2022-10-19T04:36:11.850Z,2.30
2022-10-19T04:38:39.096Z,2.20
2022-10-19T04:41:09.270Z,2.45
2022-10-19T04:43:36.506Z,2.20
2022-10-19T04:46:23.621Z,2.10
2022-10-19T04:48:51.253Z,2.00
2022-10-19T04:51:21.241Z,2.40
2022-10-19T04:53:48.378Z,1.85
2022-10-19T04:56:17.866Z,2.20
2022-10-19T04:58:45.066Z,2.28
2022-10-19T05:01:14.204Z,1.90
2022-10-19T05:03:41.249Z,2.30
2022-10-19T05:06:09.160Z,2.35
2022-10-19T05:08:36.954Z,2.20
2022-10-19T05:11:09.188Z,2.38
2022-10-19T05:13:36.141Z,2.40
2022-10-19T05:16:05.118Z,2.72
2022-10-19T05:18:32.310Z,2.90
2022-10-19T05:21:03.003Z,2.67
2022-10-19T05:23:30.218Z,2.72
2022-10-19T05:26:11.776Z,3.00
2022-10-19T05:28:38.830Z,2.83
2022-10-19T05:31:16.043Z,2.93
2022-10-19T05:33:43.812Z,2.70
2022-10-19T05:36:19.711Z,3.17
2022-10-19T05:38:50.382Z,2.85
2022-10-19T05:41:17.412Z,3.33
2022-10-19T05:43:45.032Z,3.10
2022-10-19T05:46:14.766Z,3.00
2022-10-19T05:48:42.137Z,2.67
2022-10-19T05:51:12.109Z,2.80
2022-10-19T05:53:39.779Z,2.83
2022-10-19T05:56:08.818Z,3.20
2022-10-19T05:58:36.093Z,2.22
2022-10-19T06:01:03.051Z,2.10
2022-10-19T06:03:30.815Z,2.30
2022-10-19T06:05:58.350Z,2.28
2022-10-19T06:08:25.478Z,2.55
2022-10-19T06:10:52.692Z,2.42
2022-10-19T06:13:20.430Z,2.22
2022-10-19T06:15:51.377Z,2.90
2022-10-19T06:18:18.299Z,2.40
2022-10-19T06:20:45.653Z,2.60
2022-10-19T06:23:12.485Z,2.55
2022-10-19T06:25:41.073Z,2.72
2022-10-19T06:28:08.040Z,2.60
2022-10-19T06:30:38.300Z,2.90
2022-10-19T06:33:05.154Z,2.70
2022-10-19T06:35:32.067Z,2.27
2022-10-19T06:37:58.910Z,2.53
2022-10-19T06:40:25.866Z,2.50
2022-10-19T06:42:54.654Z,2.35
2022-10-19T06:45:21.489Z,2.90
2022-10-19T06:50:20.784Z,2.00
2022-10-19T06:52:47.939Z,1.90
2022-10-19T06:55:15.059Z,1.73
2022-10-19T06:57:41.899Z,2.00
2022-10-19T07:00:09.268Z,2.22
2022-10-19T07:02:36.123Z,2.20
2022-10-19T07:05:06.053Z,2.33
2022-10-19T07:07:34.625Z,2.03
2022-10-19T07:10:01.990Z,2.60
2022-10-19T07:12:29.377Z,2.70
2022-10-19T07:14:56.339Z,2.50
2022-10-19T07:17:23.189Z,2.67
2022-10-19T07:19:49.960Z,2.38
2022-10-19T07:22:21.250Z,2.40
2022-10-19T07:24:52.220Z,2.60
2022-10-19T07:27:19.186Z,2.38
2022-10-19T07:29:46.035Z,2.20
2022-10-19T07:32:12.874Z,2.40
2022-10-19T07:34:39.713Z,2.35
2022-10-19T07:37:06.693Z,2.13
2022-10-19T07:39:33.569Z,2.03
2022-10-19T07:42:00.346Z,2.10
2022-10-19T07:44:27.219Z,2.33
2022-10-19T07:46:54.143Z,2.15
2022-10-19T07:49:21.753Z,2.17
2022-10-19T07:51:48.678Z,2.33
2022-10-19T07:54:15.512Z,2.45
2022-10-19T07:56:42.379Z,2.30
2022-10-19T07:59:10.265Z,2.40
2022-10-19T08:01:41.372Z,2.25
2022-10-19T08:06:55.485Z,2.00
2022-10-19T08:09:51.116Z,2.40
2022-10-19T08:12:14.581Z,1.80
2022-10-19T08:14:42.255Z,1.77
2022-10-19T08:17:11.900Z,1.85
2022-10-19T08:19:43.386Z,2.00
2022-10-19T08:22:11.156Z,2.17
2022-10-19T08:24:38.217Z,2.10
2022-10-19T08:27:05.232Z,2.50
2022-10-19T08:29:32.224Z,2.38
2022-10-19T08:31:59.771Z,1.90
2022-10-19T08:34:26.827Z,2.20
2022-10-19T08:36:53.654Z,1.80
2022-10-19T08:39:20.584Z,1.80
2022-10-19T08:41:53.548Z,1.95
2022-10-19T08:44:54.884Z,1.90
2022-10-19T08:47:58.271Z,2.20
2022-10-19T08:50:33.322Z,2.38
2022-10-19T08:53:11.587Z,1.80
2022-10-19T08:55:49.055Z,1.97
2022-10-19T08:58:34.367Z,1.92
2022-10-19T09:01:21.265Z,1.70
2022-10-19T09:04:00.331Z,1.73
2022-10-19T09:06:40.198Z,1.88
2022-10-19T09:09:12.113Z,1.95
2022-10-19T09:11:44.357Z,1.50
2022-10-19T09:14:16.336Z,1.60
2022-10-19T09:16:43.156Z,1.90
2022-10-19T09:19:22.014Z,1.77
2022-10-19T09:21:56.574Z,1.77
2022-10-19T09:24:44.567Z,1.73
2022-10-19T09:27:21.687Z,2.00
2022-10-19T09:29:55.117Z,2.00
2022-10-19T09:32:26.520Z,1.42
2022-10-19T09:34:56.738Z,1.60
2022-10-19T09:37:26.548Z,1.50
2022-10-19T09:39:55.793Z,1.50
2022-10-19T09:42:33.403Z,1.52
2022-10-19T09:45:22.013Z,1.33
2022-10-19T09:47:49.280Z,1.60
2022-10-19T09:50:20.785Z,1.65
2022-10-19T09:52:56.854Z,1.70
2022-10-19T09:55:44.728Z,1.15
2022-10-19T09:58:14.507Z,1.00
2022-10-19T10:00:44.159Z,0.98
2022-10-19T10:03:32.202Z,1.00
2022-10-19T10:06:03.991Z,1.17
2022-10-19T10:08:34.287Z,1.30
2022-10-19T10:11:24.163Z,1.20
2022-10-19T10:13:53.329Z,1.00
2022-10-19T10:16:29.262Z,1.20
2022-10-19T10:18:56.132Z,1.17
2022-10-19T10:21:25.824Z,1.00
2022-10-19T10:24:29.791Z,0.97
2022-10-19T10:27:01.141Z,1.00
2022-10-19T10:29:34.153Z,0.80
2022-10-19T10:32:18.757Z,0.80
2022-10-19T10:34:53.841Z,0.80
2022-10-19T10:37:36.284Z,1.00
2022-10-19T10:40:05.845Z,0.80
2022-10-19T10:42:53.571Z,0.90
2022-10-19T10:45:23.849Z,0.90
2022-10-19T10:47:51.493Z,1.20
2022-10-19T10:50:34.503Z,0.95
2022-10-19T10:53:04.325Z,0.90
2022-10-19T10:55:32.212Z,0.93
2022-10-19T10:58:25.423Z,1.05
2022-10-19T11:00:55.888Z,1.20
2022-10-19T11:03:27.166Z,1.48
2022-10-19T11:06:00.874Z,1.30
2022-10-19T11:08:38.222Z,1.10
2022-10-19T11:11:19.205Z,1.10
2022-10-19T11:13:50.448Z,0.90
2022-10-19T11:16:20.343Z,1.00
2022-10-19T11:19:22.385Z,1.35
2022-10-19T11:22:01.264Z,1.23
2022-10-19T11:24:50.074Z,1.38
2022-10-19T11:27:35.234Z,1.40
2022-10-19T11:30:18.482Z,1.10
2022-10-19T11:32:57.410Z,1.30
2022-10-19T11:35:35.773Z,1.20
2022-10-19T11:38:19.753Z,1.63
2022-10-19T11:41:18.356Z,1.42
2022-10-19T11:44:17.267Z,1.40
2022-10-19T11:47:02.658Z,1.50
2022-10-19T11:49:54.353Z,1.60
2022-10-19T11:52:26.206Z,1.50
2022-10-19T11:55:05.711Z,1.70
2022-10-19T11:57:47.466Z,1.40
2022-10-19T12:00:38.050Z,1.58
2022-10-19T12:03:23.600Z,1.37
2022-10-19T12:06:08.120Z,1.90
2022-10-19T12:08:45.657Z,1.77
2022-10-19T12:11:56.842Z,1.60
2022-10-19T12:14:34.342Z,1.70
2022-10-19T12:17:07.838Z,2.10
2022-10-19T12:19:40.694Z,1.73
2022-10-19T12:22:17.100Z,1.60
2022-10-19T12:24:43.982Z,1.58
2022-10-19T12:27:16.540Z,1.60
2022-10-19T12:29:48.471Z,1.33
2022-10-19T12:32:19.772Z,1.30
2022-10-19T12:35:12.057Z,1.48
2022-10-19T12:37:45.194Z,1.50
2022-10-19T12:40:48.605Z,1.27
2022-10-19T12:43:20.192Z,1.60
2022-10-19T12:46:08.285Z,1.35
2022-10-19T12:48:37.164Z,1.40
2022-10-19T12:51:07.414Z,1.60
2022-10-19T12:53:43.135Z,1.20
2022-10-19T12:56:09.984Z,1.75
2022-10-19T12:58:47.677Z,1.58
2022-10-19T13:01:28.495Z,1.45
2022-10-19T13:04:17.320Z,1.40
2022-10-19T13:06:50.572Z,1.30
2022-10-19T13:09:35.229Z,1.42
2022-10-19T13:12:21.402Z,1.65
2022-10-19T13:14:53.464Z,1.48
2022-10-19T13:17:40.695Z,1.40
2022-10-19T13:20:14.179Z,1.40
2022-10-19T13:22:50.171Z,1.30
2022-10-19T13:25:21.190Z,1.38
2022-10-19T13:27:49.808Z,1.42
2022-10-19T13:30:49.172Z,1.20
2022-10-19T13:33:34.817Z,1.38
2022-10-19T13:36:02.633Z,1.30
2022-10-19T13:39:02.673Z,1.20
2022-10-19T13:41:38.717Z,1.30
2022-10-19T13:44:17.052Z,1.05
2022-10-19T13:46:55.645Z,1.33
2022-10-19T13:50:03.399Z,1.52
2022-10-19T13:52:36.250Z,1.40
2022-10-19T13:55:18.686Z,1.20
2022-10-19T13:58:07.285Z,1.00
2022-10-19T14:00:55.273Z,1.23
2022-10-19T14:03:44.127Z,1.08
2022-10-19T14:06:47.748Z,1.25
2022-10-19T14:09:45.791Z,1.23
2022-10-19T14:12:23.916Z,1.40
2022-10-19T14:14:54.460Z,1.40
2022-10-19T14:17:25.331Z,1.40
2022-10-19T14:19:56.993Z,1.40
2022-10-19T14:22:36.096Z,1.20
2022-10-19T14:25:13.104Z,1.42
2022-10-19T14:27:39.986Z,1.15
2022-10-19T14:30:07.524Z,1.20
2022-10-19T14:32:35.544Z,1.25
2022-10-19T14:35:20.658Z,1.30
2022-10-19T14:37:47.980Z,1.08
2022-10-19T14:40:38.847Z,1.05
2022-10-19T14:43:34.897Z,1.13
2022-10-19T14:46:07.581Z,1.20
2022-10-19T14:48:40.575Z,1.10
2022-10-19T14:51:29.348Z,1.25
2022-10-19T14:54:05.996Z,1.20
2022-10-19T14:56:53.166Z,1.20
2022-10-19T14:59:35.240Z,1.20
2022-10-19T15:02:10.033Z,1.00
2022-10-19T15:04:38.948Z,1.45
2022-10-19T15:07:19.238Z,1.02
2022-10-19T15:09:54.491Z,1.27
2022-10-19T15:12:27.817Z,1.30
2022-10-19T15:14:55.027Z,1.00
2022-10-19T15:17:26.747Z,1.30
2022-10-19T15:19:56.043Z,1.20
2022-10-19T15:22:33.687Z,1.45
2022-10-19T15:25:08.250Z,1.25
2022-10-19T15:27:45.499Z,1.30
2022-10-19T15:30:18.122Z,1.52
2022-10-19T15:32:47.438Z,1.33
2022-10-19T15:35:35.000Z,1.08
2022-10-19T15:38:03.319Z,1.23
2022-10-19T15:40:34.620Z,1.20
2022-10-19T15:43:21.573Z,1.37
2022-10-19T15:45:58.809Z,1.25
2022-10-19T15:48:50.081Z,1.50
2022-10-19T15:51:28.583Z,1.17
2022-10-19T15:54:00.916Z,1.27
2022-10-19T15:56:30.675Z,1.30
2022-10-19T15:58:59.440Z,1.20
2022-10-19T16:01:28.959Z,1.40
2022-10-19T16:03:56.703Z,1.30
2022-10-19T16:06:26.408Z,1.40
2022-10-19T16:08:54.202Z,1.60
2022-10-19T16:11:25.803Z,1.65
2022-10-19T16:13:52.970Z,1.70
2022-10-19T16:16:27.841Z,1.50
2022-10-19T16:18:55.822Z,1.60
2022-10-19T16:21:27.046Z,1.88
2022-10-19T16:23:54.222Z,1.98
2022-10-19T16:26:22.303Z,1.55
2022-10-19T16:28:49.540Z,1.60
2022-10-19T16:31:16.996Z,1.60
2022-10-19T16:33:44.371Z,1.70
2022-10-19T16:36:11.666Z,1.70
2022-10-19T16:38:38.586Z,1.40
2022-10-19T16:41:08.591Z,1.70
2022-10-19T16:43:36.257Z,1.92
2022-10-19T16:46:04.138Z,1.40
2022-10-19T16:48:31.783Z,1.52
2022-10-19T16:51:07.716Z,1.60
2022-10-19T16:53:35.209Z,1.60
2022-10-19T16:56:10.403Z,1.67
2022-10-19T16:58:37.579Z,1.88
2022-10-19T17:01:18.206Z,1.77
2022-10-19T17:03:46.812Z,1.67
2022-10-19T17:06:15.082Z,1.88
2022-10-19T17:09:14.745Z,1.80
2022-10-19T17:11:34.162Z,1.85
2022-10-19T17:14:05.040Z,1.87
2022-10-19T17:16:34.119Z,1.75
2022-10-19T17:19:02.406Z,2.20
2022-10-19T17:21:31.816Z,2.20
2022-10-19T17:24:01.183Z,2.38
2022-10-19T17:26:39.817Z,2.35
2022-10-19T17:29:07.415Z,2.23
2022-10-19T17:31:35.069Z,2.53
2022-10-19T17:34:02.753Z,2.40
2022-10-19T17:36:32.128Z,2.45
2022-10-19T17:39:01.829Z,2.47
2022-10-19T17:41:29.296Z,2.35
2022-10-19T17:43:56.957Z,2.58
2022-10-19T17:46:26.384Z,2.60
2022-10-19T17:48:53.651Z,2.78
2022-10-19T17:51:23.896Z,2.60
2022-10-19T17:53:51.074Z,2.80
2022-10-19T17:56:19.779Z,2.40
2022-10-19T17:58:47.687Z,2.55
2022-10-19T18:01:18.466Z,2.70
2022-10-19T18:03:45.708Z,2.50
2022-10-19T18:06:13.759Z,3.17
2022-10-19T18:08:43.636Z,3.20
2022-10-19T18:11:13.763Z,2.97
2022-10-19T18:13:41.073Z,3.13
2022-10-19T18:16:10.754Z,2.90
2022-10-19T18:18:41.330Z,3.70
2022-10-19T18:21:13.879Z,3.10
2022-10-19T18:23:41.586Z,3.10
2022-10-19T18:26:13.395Z,3.38
2022-10-19T18:28:40.982Z,3.10
2022-10-19T18:31:07.790Z,3.23
2022-10-19T18:33:34.890Z,3.28
2022-10-19T18:36:02.168Z,3.53
2022-10-19T18:38:29.083Z,3.55
2022-10-19T18:40:56.589Z,3.40
2022-10-19T18:43:23.427Z,3.35
2022-10-19T18:45:58.232Z,3.00
2022-10-19T18:48:27.156Z,3.03
2022-10-19T18:50:54.429Z,3.42
2022-10-19T18:53:21.552Z,3.50
2022-10-19T18:55:58.142Z,3.60
2022-10-19T18:58:25.473Z,3.67
2022-10-19T19:01:03.572Z,3.35
2022-10-19T19:03:30.456Z,3.37
2022-10-19T19:06:02.163Z,3.58
2022-10-19T19:08:29.797Z,3.38
2022-10-19T19:10:57.251Z,3.20
2022-10-19T19:13:24.293Z,3.50
2022-10-19T19:15:58.894Z,3.47
2022-10-19T19:18:26.170Z,3.78
2022-10-19T19:20:53.358Z,3.42
2022-10-19T19:23:20.528Z,3.40
2022-10-19T19:25:48.026Z,3.47
2022-10-19T19:28:14.907Z,3.33
2022-10-19T19:30:43.369Z,3.10
2022-10-19T19:33:10.719Z,3.38
2022-10-19T19:35:45.364Z,3.58
2022-10-19T19:38:13.028Z,3.37
2022-10-19T19:40:45.045Z,3.38
2022-10-19T19:43:13.977Z,3.25
2022-10-19T19:45:42.748Z,3.50
2022-10-19T19:48:10.541Z,3.10
2022-10-19T19:50:38.379Z,3.10
2022-10-19T19:53:05.599Z,3.17
2022-10-19T19:55:38.115Z,3.30
2022-10-19T19:58:06.049Z,3.20
2022-10-19T20:00:32.942Z,3.15
2022-10-19T20:02:59.856Z,2.90
2022-10-19T20:05:28.507Z,3.20
2022-10-19T20:07:55.555Z,3.38
2022-10-19T20:10:22.454Z,2.90
2022-10-19T20:12:49.406Z,3.15
2022-10-19T20:15:17.872Z,3.08
2022-10-19T20:17:45.586Z,3.03
2022-10-19T20:20:14.779Z,2.70
2022-10-19T20:22:46.750Z,3.10
2022-10-19T20:25:14.313Z,3.00
2022-10-19T20:27:42.199Z,3.00
2022-10-19T20:30:09.963Z,2.97
2022-10-19T20:32:37.558Z,3.05
2022-10-19T20:35:05.260Z,3.25
2022-10-19T20:37:32.373Z,3.50
2022-10-19T20:39:59.414Z,3.10
2022-10-19T20:42:26.494Z,2.95
2022-10-19T20:44:54.741Z,3.35
2022-10-19T20:47:22.104Z,3.10
2022-10-19T20:49:49.062Z,3.10
2022-10-19T20:52:16.031Z,3.10
2022-10-19T20:54:43.045Z,3.10
2022-10-19T20:57:10.035Z,3.50
2022-10-19T20:59:38.759Z,3.30
2022-10-19T21:02:05.780Z,3.00
2022-10-19T21:04:32.764Z,2.90
2022-10-19T21:07:00.016Z,3.13
2022-10-19T21:09:27.203Z,3.00
2022-10-19T21:11:54.054Z,3.22
2022-10-19T21:14:27.043Z,3.30
2022-10-19T21:16:59.542Z,3.30
2022-10-19T21:19:28.680Z,3.25
2022-10-19T21:22:03.784Z,3.20
2022-10-19T21:24:36.045Z,3.40
2022-10-19T21:27:06.557Z,3.30
2022-10-19T21:29:34.209Z,3.38
2022-10-19T21:32:01.145Z,3.55
2022-10-19T21:34:30.104Z,3.45
2022-10-19T21:36:57.598Z,3.63
2022-10-19T21:39:24.446Z,3.33
2022-10-19T21:41:51.256Z,3.70
2022-10-19T21:44:18.939Z,4.00
2022-10-19T21:46:47.814Z,3.70
2022-10-19T21:49:15.470Z,3.67
2022-10-19T21:51:52.025Z,3.57
2022-10-19T21:54:21.275Z,3.35
2022-10-19T21:56:48.903Z,4.07
2022-10-19T21:59:16.477Z,3.78
2022-10-19T22:01:43.859Z,3.60
2022-10-19T22:04:16.781Z,3.70
2022-10-19T22:06:44.263Z,3.97
2022-10-19T22:09:17.960Z,4.20
2022-10-19T22:11:45.683Z,3.90
2022-10-19T22:14:15.151Z,4.10
2022-10-19T22:16:42.463Z,4.00
2022-10-19T22:19:10.068Z,3.90
2022-10-19T22:24:07.699Z,4.28
2022-10-19T22:26:39.360Z,4.30
2022-10-19T22:29:07.319Z,3.92
2022-10-19T22:31:35.436Z,3.90
2022-10-19T22:34:04.968Z,4.28
2022-10-19T22:36:31.921Z,4.60
2022-10-19T22:38:58.793Z,4.18
2022-10-19T22:42:22.186Z,4.20
2022-10-19T22:45:08.191Z,4.53
2022-10-19T22:47:35.079Z,4.10
2022-10-19T22:50:02.011Z,4.38
2022-10-19T22:52:28.914Z,4.40
2022-10-19T22:54:55.991Z,4.50
2022-10-19T22:57:22.920Z,4.47
2022-10-19T22:59:49.741Z,4.55
2022-10-19T23:02:16.561Z,4.60
2022-10-19T23:04:43.388Z,4.70
2022-10-19T23:09:38.061Z,4.55
2022-10-19T23:12:05.228Z,4.60
2022-10-19T23:14:32.130Z,4.87
2022-10-19T23:16:59.072Z,5.07
2022-10-19T23:19:26.058Z,4.75
2022-10-19T23:21:52.885Z,4.60
2022-10-19T23:24:19.792Z,4.80
2022-10-19T23:26:46.934Z,4.65
2022-10-19T23:29:14.642Z,4.57
2022-10-19T23:31:41.461Z,4.60
2022-10-19T23:34:08.460Z,4.72
2022-10-19T23:36:35.434Z,4.80
2022-10-19T23:39:02.303Z,4.65
2022-10-19T23:41:29.317Z,4.68
2022-10-19T23:43:56.186Z,4.93
2022-10-19T23:46:23.132Z,4.72
2022-10-19T23:48:50.029Z,4.90
2022-10-19T23:51:19.712Z,4.68
2022-10-19T23:53:48.113Z,5.10
2022-10-19T23:56:16.670Z,4.82
2022-10-19T23:58:43.906Z,5.03
